In Rescue
 
Open Full Screen Window  High Contrast Mode
May 25, 2022 9:05 PM EDT
Weather Information
Wind Direction
  ---
Wind Speed
  00 kt (0 mph)
Wind Gust
  00 kt (0 mph)
Altimeter
30.25 in
Visibility
10 SM
Temperature
16° C
61° F
Dewpoint
09° C
48° F
Humidity
63%
1hr Rain Fall
00.00 in.
24hr Rain Fall
00.00 in.
Sky Condition
Clear
VFR

METAR K6B0 260105Z AUTO 00000KT 10SM CLR 16/09 A3025 RMK AO2 T01620093

FAA Disclaimer: The data displayed is for advisory purposes only and is not to be used for flight planning or operations.